Time;durP1;ratioP1;P1;durP2;ratioP2;P2;SDS_P1;SDS_P2;PMS_P1;PMS_P2;Temp;Humidity;BMP_temperature;BMP_pressure;BME280_temperature;BME280_humidity;BME280_pressure;Samples;Min_cycle;Max_cycle;Signal;HPM_P1;HPM_P2
2021/03/01 00:00:16;;;;;;;;;;;5.00;99.90;;;;;;5036108;28;20289;-90
2021/03/01 00:02:51;;;;;;;;;;;5.00;99.90;;;;;;5017214;28;19910;-89
2021/03/01 00:05:19;;;;;;;;;;;5.00;99.90;;;;;;5017308;28;19917;-90
2021/03/01 00:07:56;;;;;;;;;;;5.00;99.90;;;;;;5017656;28;20243;-90
2021/03/01 00:10:24;;;;;;;;;;;5.00;99.90;;;;;;5017671;28;19913;-90
2021/03/01 00:13:04;;;;;;;;;;;5.10;99.90;;;;;;5017882;28;19920;-92
2021/03/01 00:15:33;;;;;;;;;;;5.10;99.90;;;;;;5013736;28;19909;-92
2021/03/01 00:18:07;;;;;;;;;;;5.10;99.90;;;;;;5033096;28;19946;-91
2021/03/01 00:20:36;;;;;;;;;;;5.10;99.90;;;;;;4989349;28;19910;-90
2021/03/01 00:23:25;;;;;;;;;;;5.10;99.90;;;;;;4994628;28;19997;-90
2021/03/01 00:25:53;;;;;;;;;;;5.00;99.90;;;;;;4980823;28;19922;-90
2021/03/01 00:28:20;;;;;;;;;;;5.00;99.90;;;;;;4982064;28;19917;-91
2021/03/01 00:30:58;;;;;;;;;;;5.00;99.90;;;;;;4977863;28;19914;-91
2021/03/01 00:33:30;;;;;;;;;;;5.00;99.90;;;;;;4981918;28;19910;-92
2021/03/01 00:36:05;;;;;;;;;;;5.00;99.90;;;;;;4981876;28;19911;-92
2021/03/01 00:38:36;;;;;;;;;;;5.00;99.90;;;;;;4979904;28;20381;-91
2021/03/01 00:41:05;;;;;;;;;;;5.00;99.90;;;;;;4979814;28;19910;-90
2021/03/01 00:43:39;;;;;;;;;;;5.00;99.90;;;;;;4979102;28;19971;-91
2021/03/01 00:46:10;;;;;;;;;;;5.00;99.90;;;;;;5017135;28;19964;-91
2021/03/01 00:48:38;;;;;;;;;;;5.00;99.90;;;;;;4923381;29;19922;-91
2021/03/01 00:51:07;;;;;;;;;;;5.00;99.90;;;;;;4923632;29;19944;-90
2021/03/01 00:53:35;;;;;;;;;;;5.10;99.90;;;;;;4923933;29;19938;-91
2021/03/01 00:56:04;;;;;;;;;;;5.00;99.90;;;;;;4918448;29;19918;-91
2021/03/01 00:58:32;;;;;;;;;;;5.10;99.90;;;;;;4935080;29;19918;-92
2021/03/01 01:01:03;;;;;;;;;;;5.10;99.90;;;;;;4923129;29;19954;-90
2021/03/01 01:03:34;;;;;;;;;;;5.10;99.90;;;;;;4916713;29;20477;-90
2021/03/01 01:06:00;;;;;;;;;;;5.10;99.90;;;;;;4938936;29;19955;-91
2021/03/01 01:08:40;;;;;;;;;;;5.10;99.90;;;;;;4918436;29;19911;-92
2021/03/01 01:11:22;;;;;;;;;;;5.10;99.90;;;;;;4900769;29;19920;-91
2021/03/01 01:13:56;;;;;;;;;;;5.10;99.90;;;;;;4887965;29;19919;-91
2021/03/01 01:16:29;;;;;;;;;;;5.10;99.90;;;;;;4884884;29;19912;-91
2021/03/01 01:18:55;;;;;;;;;;;5.10;99.90;;;;;;4919248;28;19910;-90
2021/03/01 01:21:35;;;;;;;;;;;5.00;99.90;;;;;;4961397;28;19919;-92
2021/03/01 01:24:08;;;;;;;;;;;5.10;99.90;;;;;;4961757;28;19910;-92
2021/03/01 01:26:39;;;;;;;;;;;5.00;99.90;;;;;;4961620;28;19921;-92
2021/03/01 01:29:05;;;;;;;;;;;5.10;99.90;;;;;;4961659;28;19980;-91
2021/03/01 01:31:36;;;;;;;;;;;5.10;99.90;;;;;;4960491;28;20426;-90
2021/03/01 01:34:06;;;;;;;;;;;5.10;99.90;;;;;;4960630;28;20340;-90
2021/03/01 01:36:41;;;;;;;;;;;5.10;99.90;;;;;;4976291;28;19954;-90
2021/03/01 01:39:07;;;;;;;;;;;5.10;99.90;;;;;;4960955;28;19914;-91
2021/03/01 01:41:43;;;;;;;;;;;5.20;99.90;;;;;;4985870;28;20346;-89
2021/03/01 01:44:30;;;;;;;;;;;5.20;99.90;;;;;;5016790;28;19910;-92
2021/03/01 01:47:03;;;;;;;;;;;5.20;99.90;;;;;;4999927;28;19921;-90
2021/03/01 01:49:39;;;;;;;;;;;5.20;99.90;;;;;;5000439;28;19909;-90
2021/03/01 01:52:07;;;;;;;;;;;5.20;99.90;;;;;;4995491;28;20010;-91
2021/03/01 01:54:32;;;;;;;;;;;5.20;99.90;;;;;;4970282;28;19917;-92
2021/03/01 01:57:10;;;;;;;;;;;5.20;99.90;;;;;;4977016;28;20009;-91
2021/03/01 01:59:38;;;;;;;;;;;5.20;99.90;;;;;;4975196;28;20363;-92
2021/03/01 02:02:15;;;;;;;;;;;5.20;99.90;;;;;;4953863;29;20363;-91
2021/03/01 02:04:57;;;;;;;;;;;5.20;99.90;;;;;;4957292;29;20009;-91
2021/03/01 02:07:35;;;;;;;;;;;5.20;99.90;;;;;;4957681;29;19911;-91
2021/03/01 02:10:14;;;;;;;;;;;5.20;99.90;;;;;;4951243;29;19950;-91
2021/03/01 02:12:51;;;;;;;;;;;5.20;99.90;;;;;;4954653;29;20298;-90
2021/03/01 02:15:25;;;;;;;;;;;5.20;99.90;;;;;;4956562;29;19969;-90
2021/03/01 02:17:54;;;;;;;;;;;5.10;99.90;;;;;;4956115;29;20295;-91
2021/03/01 02:20:30;;;;;;;;;;;;;;;;;;;;;
2021/03/01 02:22:56;;;;;;;;;;;5.10;99.90;;;;;;4955369;29;19921;-91
2021/03/01 02:25:30;;;;;;;;;;;5.20;99.90;;;;;;4956046;29;20001;-91
2021/03/01 02:28:10;;;;;;;;;;;5.20;99.90;;;;;;4956195;29;19914;-91
2021/03/01 02:30:41;;;;;;;;;;;5.20;99.90;;;;;;4957117;29;19918;-90
2021/03/01 02:33:17;;;;;;;;;;;5.20;99.90;;;;;;4988781;28;19968;-92
2021/03/01 02:35:47;;;;;;;;;;;5.20;99.90;;;;;;4999855;28;19914;-91
2021/03/01 02:38:20;;;;;;;;;;;5.20;99.90;;;;;;5008789;28;19932;-90
2021/03/01 02:40:52;;;;;;;;;;;5.10;99.90;;;;;;4999354;28;19909;-91
2021/03/01 02:43:39;;;;;;;;;;;5.10;99.90;;;;;;5014584;28;19925;-90
2021/03/01 02:46:11;;;;;;;;;;;5.10;99.90;;;;;;4994769;28;19924;-91
2021/03/01 02:48:40;;;;;;;;;;;5.10;99.90;;;;;;5017464;28;20028;-91
2021/03/01 02:51:09;;;;;;;;;;;5.10;99.90;;;;;;5019943;28;19913;-91
2021/03/01 02:53:39;;;;;;;;;;;5.00;99.90;;;;;;5019300;28;19909;-89
2021/03/01 02:56:05;;;;;;;;;;;5.00;99.90;;;;;;5016470;28;20409;-90
2021/03/01 02:58:45;;;;;;;;;;;5.00;99.90;;;;;;5036223;28;19961;-90
2021/03/01 03:01:23;;;;;;;;;;;5.00;99.90;;;;;;5018899;28;19909;-90
2021/03/01 03:03:51;;;;;;;;;;;5.00;99.90;;;;;;5018874;28;19916;-90
2021/03/01 03:06:18;;;;;;;;;;;5.00;99.90;;;;;;5013418;28;19925;-89
2021/03/01 03:08:50;;;;;;;;;;;5.00;99.90;;;;;;5013941;28;19913;-90
2021/03/01 03:11:27;;;;;;;;;;;5.00;99.90;;;;;;4959267;28;19946;-91
2021/03/01 03:14:05;;;;;;;;;;;5.00;99.90;;;;;;4974112;28;19910;-89
2021/03/01 03:16:48;;;;;;;;;;;5.00;99.90;;;;;;4975361;28;20002;-90
2021/03/01 03:19:17;;;;;;;;;;;5.00;99.90;;;;;;4975213;28;20406;-90
2021/03/01 03:21:45;;;;;;;;;;;5.00;99.90;;;;;;4973578;28;20359;-91
2021/03/01 03:24:15;;;;;;;;;;;5.00;99.90;;;;;;4974913;28;19910;-92
2021/03/01 03:26:45;;;;;;;;;;;5.00;99.90;;;;;;4975697;28;19953;-91
2021/03/01 03:29:19;;;;;;;;;;;5.00;99.90;;;;;;4971320;28;19911;-89
2021/03/01 03:31:45;;;;;;;;;;;5.00;99.90;;;;;;4972691;28;19910;-90
2021/03/01 03:34:13;;;;;;;;;;;5.00;99.90;;;;;;4936501;29;19911;-90
2021/03/01 03:37:20;;;;;;;;;;;5.00;99.90;;;;;;4974798;28;20351;-91
2021/03/01 03:39:47;;;;;;;;;;;4.90;99.90;;;;;;4958271;28;19996;-90
2021/03/01 03:42:25;;;;;;;;;;;4.90;99.90;;;;;;4959456;28;19910;-89
2021/03/01 03:44:56;;;;;;;;;;;4.90;99.90;;;;;;4959008;28;19918;-89
2021/03/01 03:47:34;;;;;;;;;;;4.90;99.90;;;;;;4958441;28;19926;-90
2021/03/01 03:50:05;;;;;;;;;;;4.90;99.90;;;;;;4974972;28;19957;-91
2021/03/01 03:52:34;;;;;;;;;;;4.90;99.90;;;;;;4975636;28;19910;-91
2021/03/01 03:55:06;;;;;;;;;;;4.90;99.90;;;;;;4958806;28;20025;-90
2021/03/01 03:57:34;;;;;;;;;;;4.90;99.90;;;;;;4974829;28;19910;-89
2021/03/01 04:00:09;;;;;;;;;;;4.90;99.90;;;;;;4973784;28;19950;-89
2021/03/01 04:02:38;;;;;;;;;;;4.90;99.90;;;;;;4973281;28;19910;-90
2021/03/01 04:05:07;;;;;;;;;;;4.90;99.90;;;;;;4968487;28;19950;-90
2021/03/01 04:07:40;;;;;;;;;;;4.80;99.90;;;;;;4981238;28;19909;-90
2021/03/01 04:10:23;;;;;;;;;;;4.80;99.90;;;;;;4980581;28;19913;-90
2021/03/01 04:12:53;;;;;;;;;;;4.80;99.90;;;;;;4997983;28;19913;-90
2021/03/01 04:15:21;;;;;;;;;;;4.80;99.90;;;;;;4959349;29;19950;-89
2021/03/01 04:17:48;;;;;;;;;;;4.70;99.90;;;;;;4955614;29;19914;-90
2021/03/01 04:20:21;;;;;;;;;;;4.70;99.90;;;;;;4957502;29;19922;-90
2021/03/01 04:22:51;;;;;;;;;;;4.70;99.90;;;;;;4965374;28;19915;-91
2021/03/01 04:25:17;;;;;;;;;;;4.70;99.90;;;;;;4985424;28;19929;-90
2021/03/01 04:27:43;;;;;;;;;;;4.70;99.90;;;;;;4969382;28;19904;-91
2021/03/01 04:30:10;;;;;;;;;;;4.70;99.90;;;;;;4970229;28;19969;-91
2021/03/01 04:32:47;;;;;;;;;;;4.80;99.90;;;;;;4968172;28;19914;-91
2021/03/01 04:35:20;;;;;;;;;;;4.70;99.90;;;;;;4987125;28;19910;-90
2021/03/01 04:37:46;;;;;;;;;;;4.70;99.90;;;;;;4968399;28;19910;-90
2021/03/01 04:40:18;;;;;;;;;;;4.70;99.90;;;;;;4953622;29;19926;-90
2021/03/01 04:42:51;;;;;;;;;;;4.60;99.90;;;;;;4943058;29;19911;-90
2021/03/01 04:45:25;;;;;;;;;;;4.70;99.90;;;;;;4943712;28;20364;-91
2021/03/01 04:47:53;;;;;;;;;;;4.70;99.90;;;;;;4976249;28;20006;-90
2021/03/01 04:50:19;;;;;;;;;;;4.70;99.90;;;;;;4977709;28;19990;-90
2021/03/01 04:52:50;;;;;;;;;;;4.70;99.90;;;;;;4979691;28;19910;-90
2021/03/01 04:55:16;;;;;;;;;;;4.70;99.90;;;;;;5017680;28;19916;-90
2021/03/01 04:57:57;;;;;;;;;;;4.70;99.90;;;;;;5014148;28;19909;-91
2021/03/01 05:00:26;;;;;;;;;;;4.70;99.90;;;;;;5020806;28;19919;-91
2021/03/01 05:02:55;;;;;;;;;;;4.60;99.90;;;;;;5021071;28;20008;-91
2021/03/01 05:05:41;;;;;;;;;;;4.60;99.90;;;;;;5017459;28;19980;-91
2021/03/01 05:08:19;;;;;;;;;;;4.60;99.90;;;;;;5017468;28;19912;-91
2021/03/01 05:10:53;;;;;;;;;;;4.60;99.90;;;;;;5014903;28;20053;-90
2021/03/01 05:13:30;;;;;;;;;;;4.60;99.90;;;;;;5020817;28;19909;-91
2021/03/01 05:16:05;;;;;;;;;;;4.60;99.90;;;;;;4998143;28;19910;-91
2021/03/01 05:18:47;;;;;;;;;;;4.50;99.90;;;;;;4997798;28;19977;-90
2021/03/01 05:21:17;;;;;;;;;;;4.50;99.90;;;;;;4981871;28;19960;-90
2021/03/01 05:23:48;;;;;;;;;;;4.50;99.90;;;;;;4998222;28;20375;-91
2021/03/01 05:26:20;;;;;;;;;;;4.50;99.90;;;;;;4994223;28;19924;-92
2021/03/01 05:28:58;;;;;;;;;;;4.50;99.90;;;;;;4997663;28;20397;-92
2021/03/01 05:31:24;;;;;;;;;;;4.40;99.90;;;;;;4992464;28;19917;-92
2021/03/01 05:33:50;;;;;;;;;;;4.40;99.90;;;;;;4976648;28;20287;-92
2021/03/01 05:36:18;;;;;;;;;;;4.30;99.90;;;;;;4976606;28;20406;-90
2021/03/01 05:38:49;;;;;;;;;;;4.30;99.90;;;;;;4953655;29;19914;-91
2021/03/01 05:41:32;;;;;;;;;;;4.30;99.90;;;;;;4974353;28;19911;-91
2021/03/01 05:44:11;;;;;;;;;;;4.30;99.90;;;;;;4977335;28;19914;-92
2021/03/01 05:46:40;;;;;;;;;;;4.20;99.90;;;;;;4973120;28;19994;-90
2021/03/01 05:49:15;;;;;;;;;;;4.20;99.90;;;;;;4953298;28;20385;-92
2021/03/01 05:51:42;;;;;;;;;;;4.20;99.90;;;;;;4957448;28;19914;-90
2021/03/01 05:54:15;;;;;;;;;;;4.20;99.90;;;;;;4955961;28;19915;-91
2021/03/01 05:56:48;;;;;;;;;;;4.10;99.90;;;;;;4957289;29;19915;-91
2021/03/01 05:59:16;;;;;;;;;;;4.10;99.90;;;;;;4956643;29;19961;-91
2021/03/01 06:01:48;;;;;;;;;;;4.10;99.90;;;;;;4954998;28;20010;-92
2021/03/01 06:04:19;;;;;;;;;;;4.00;99.90;;;;;;4943625;29;20432;-91
2021/03/01 06:06:50;;;;;;;;;;;4.00;99.90;;;;;;4923160;29;19918;-93
2021/03/01 06:09:19;;;;;;;;;;;4.00;99.90;;;;;;4925099;29;19994;-91
2021/03/01 06:11:52;;;;;;;;;;;3.90;99.90;;;;;;4923288;29;20364;-90
2021/03/01 06:14:22;;;;;;;;;;;3.90;99.90;;;;;;4925904;29;19945;-90
2021/03/01 06:17:12;;;;;;;;;;;4.00;99.90;;;;;;4939740;29;20372;-90
2021/03/01 06:19:45;;;;;;;;;;;3.90;99.90;;;;;;4938217;29;19942;-90
2021/03/01 06:22:19;;;;;;;;;;;3.90;99.90;;;;;;4921501;29;19911;-92
2021/03/01 06:25:08;;;;;;;;;;;3.90;99.90;;;;;;4936173;29;19919;-90
2021/03/01 06:27:54;;;;;;;;;;;3.90;99.90;;;;;;4938081;29;19911;-90
2021/03/01 06:30:34;;;;;;;;;;;3.90;99.90;;;;;;4921810;29;20387;-92
2021/03/01 06:33:02;;;;;;;;;;;3.90;99.90;;;;;;4924547;29;20403;-91
2021/03/01 06:35:48;;;;;;;;;;;3.80;99.90;;;;;;4976334;28;19909;-91
2021/03/01 06:38:19;;;;;;;;;;;3.80;99.90;;;;;;4994836;28;19916;-92
2021/03/01 06:41:07;;;;;;;;;;;3.80;99.90;;;;;;5004929;28;19909;-89
2021/03/01 06:43:33;;;;;;;;;;;3.80;99.90;;;;;;5009655;28;19991;-91
2021/03/01 06:46:12;;;;;;;;;;;3.70;99.90;;;;;;4999161;28;19918;-90
2021/03/01 06:48:42;;;;;;;;;;;3.70;99.90;;;;;;5019296;28;19925;-91
2021/03/01 06:51:13;;;;;;;;;;;3.70;99.90;;;;;;4996840;28;19909;-90
2021/03/01 06:54:08;;;;;;;;;;;3.70;99.90;;;;;;4999676;28;19932;-90
2021/03/01 06:56:43;;;;;;;;;;;3.60;99.90;;;;;;4998930;28;20350;-90
2021/03/01 06:59:16;;;;;;;;;;;3.60;99.90;;;;;;5009098;28;19952;-91
2021/03/01 07:01:45;;;;;;;;;;;3.70;99.90;;;;;;5038991;28;19908;-92
2021/03/01 07:04:23;;;;;;;;;;;3.60;99.90;;;;;;5038273;28;19916;-91
2021/03/01 07:06:59;;;;;;;;;;;3.60;99.90;;;;;;5036359;28;19921;-91
2021/03/01 07:09:28;;;;;;;;;;;3.60;99.90;;;;;;5038828;28;19909;-92
2021/03/01 07:12:01;;;;;;;;;;;3.60;99.90;;;;;;5003814;28;20434;-91
2021/03/01 07:14:27;;;;;;;;;;;3.60;99.90;;;;;;4968406;28;19992;-91
2021/03/01 07:16:54;;;;;;;;;;;3.60;99.90;;;;;;4995029;28;19946;-91
2021/03/01 07:19:34;;;;;;;;;;;3.60;99.90;;;;;;4988387;28;19909;-91
2021/03/01 07:22:12;;;;;;;;;;;3.50;99.90;;;;;;4989853;28;19909;-90
2021/03/01 07:24:50;;;;;;;;;;;3.50;99.90;;;;;;4980058;28;19999;-91
2021/03/01 07:27:21;;;;;;;;;;;3.50;99.90;;;;;;4987175;28;19918;-92
2021/03/01 07:29:53;;;;;;;;;;;3.50;99.90;;;;;;5012987;28;20401;-93
2021/03/01 07:32:23;;;;;;;;;;;3.50;99.90;;;;;;4993900;28;19921;-92
2021/03/01 07:34:58;;;;;;;;;;;3.40;99.90;;;;;;5000634;28;19913;-90
2021/03/01 07:37:30;;;;;;;;;;;3.40;99.90;;;;;;5019580;28;19914;-89
2021/03/01 07:40:15;;;;;;;;;;;3.40;99.90;;;;;;5019249;28;19909;-91
2021/03/01 07:43:06;;;;;;;;;;;3.40;99.90;;;;;;5016904;28;19931;-90
2021/03/01 07:45:35;;;;;;;;;;;3.40;99.90;;;;;;5041866;28;19970;-90
2021/03/01 07:48:24;;;;;;;;;;;3.40;99.90;;;;;;5040139;28;19920;-90
2021/03/01 07:50:52;;;;;;;;;;;3.40;99.90;;;;;;5046097;28;19912;-93
2021/03/01 07:53:39;;;;;;;;;;;3.50;99.90;;;;;;5037441;28;19913;-91
2021/03/01 07:56:32;;;;;;;;;;;3.50;99.90;;;;;;5062021;28;19909;-91
2021/03/01 07:59:13;;;;;;;;;;;3.50;99.90;;;;;;5046886;28;19924;-91
2021/03/01 08:01:43;;;;;;;;;;;3.50;99.90;;;;;;5063283;28;19916;-89
2021/03/01 08:04:29;;;;;;;;;;;3.60;99.90;;;;;;5017470;28;19997;-91
2021/03/01 08:06:59;;;;;;;;;;;3.60;99.90;;;;;;5003081;28;20333;-91
2021/03/01 08:09:42;;;;;;;;;;;3.60;99.90;;;;;;4997133;28;19909;-92
2021/03/01 08:12:18;;;;;;;;;;;3.50;99.90;;;;;;5001149;28;20101;-90
2021/03/01 08:14:58;;;;;;;;;;;3.60;99.90;;;;;;4983556;28;19960;-90
2021/03/01 08:17:40;;;;;;;;;;;3.70;99.90;;;;;;4982379;28;20041;-90
2021/03/01 08:20:19;;;;;;;;;;;3.70;99.90;;;;;;4942486;29;19946;-90
2021/03/01 08:23:06;;;;;;;;;;;3.80;99.90;;;;;;4943584;29;19927;-91
2021/03/01 08:25:50;;;;;;;;;;;3.90;99.90;;;;;;4941601;29;19919;-91
2021/03/01 08:28:30;;;;;;;;;;;4.00;99.90;;;;;;4942534;29;19942;-91
2021/03/01 08:31:12;;;;;;;;;;;4.00;99.90;;;;;;4942219;29;20002;-91
2021/03/01 08:33:45;;;;;;;;;;;4.10;99.90;;;;;;4943191;29;19968;-90
2021/03/01 08:36:11;;;;;;;;;;;4.20;99.90;;;;;;4962684;28;19921;-89
2021/03/01 08:38:58;;;;;;;;;;;4.20;99.90;;;;;;4997643;28;19917;-90
2021/03/01 08:41:33;;;;;;;;;;;4.30;99.90;;;;;;5006247;28;19914;-91
2021/03/01 08:44:03;;;;;;;;;;;4.20;99.90;;;;;;5008704;28;19909;-91
2021/03/01 08:46:34;;;;;;;;;;;4.30;99.90;;;;;;4961793;28;19918;-90
2021/03/01 08:49:04;;;;;;;;;;;4.30;99.90;;;;;;4969204;28;20071;-92
2021/03/01 08:51:35;;;;;;;;;;;4.30;99.90;;;;;;4996269;28;19920;-92
2021/03/01 08:54:05;;;;;;;;;;;4.30;99.90;;;;;;5014890;28;19940;-91
2021/03/01 08:56:37;;;;;;;;;;;4.30;99.90;;;;;;5009508;28;20020;-90
2021/03/01 08:59:21;;;;;;;;;;;4.40;99.90;;;;;;5019603;28;20347;-92
2021/03/01 09:01:52;;;;;;;;;;;4.40;99.90;;;;;;5013503;28;19909;-89
2021/03/01 09:04:22;;;;;;;;;;;4.40;99.90;;;;;;5018084;28;19914;-89
2021/03/01 09:06:48;;;;;;;;;;;4.30;99.90;;;;;;5007905;28;19921;-89
2021/03/01 09:09:19;;;;;;;;;;;4.40;99.90;;;;;;4973758;28;19914;-90
2021/03/01 09:11:46;;;;;;;;;;;4.40;99.90;;;;;;4974508;28;19914;-88
2021/03/01 09:14:13;;;;;;;;;;;4.50;99.90;;;;;;4973692;28;20287;-89
2021/03/01 09:16:48;;;;;;;;;;;4.50;99.90;;;;;;4972517;28;19917;-89
2021/03/01 09:19:22;;;;;;;;;;;4.50;99.90;;;;;;4976334;28;20013;-89
2021/03/01 09:21:57;;;;;;;;;;;4.40;99.90;;;;;;4972769;28;19917;-90
2021/03/01 09:24:25;;;;;;;;;;;4.40;99.90;;;;;;4897067;29;19947;-88
2021/03/01 09:27:00;;;;;;;;;;;4.50;99.90;;;;;;4879591;29;20040;-89
2021/03/01 09:29:59;;;;;;;;;;;4.50;99.90;;;;;;4882703;29;19922;-90
2021/03/01 09:32:46;;;;;;;;;;;4.50;99.90;;;;;;4882751;29;19912;-89
2021/03/01 09:35:23;;;;;;;;;;;4.60;99.90;;;;;;4848748;29;20274;-89
2021/03/01 09:37:52;;;;;;;;;;;4.60;99.90;;;;;;4882512;29;19927;-89
2021/03/01 09:40:31;;;;;;;;;;;4.60;99.90;;;;;;4865375;29;19966;-87
2021/03/01 09:43:09;;;;;;;;;;;4.70;99.90;;;;;;4882025;29;20362;-89
2021/03/01 09:45:38;;;;;;;;;;;4.70;99.90;;;;;;4870361;29;19920;-90
2021/03/01 09:48:05;;;;;;;;;;;4.80;99.90;;;;;;4924188;28;20007;-88
2021/03/01 09:50:39;;;;;;;;;;;4.80;99.90;;;;;;5018186;28;19909;-89
2021/03/01 09:53:11;;;;;;;;;;;4.90;99.90;;;;;;5004531;28;19913;-89
2021/03/01 09:55:40;;;;;;;;;;;4.90;99.90;;;;;;5037321;28;19971;-89
2021/03/01 09:58:36;;;;;;;;;;;4.90;99.90;;;;;;5000300;28;20309;-89
2021/03/01 10:01:26;;;;;;;;;;;5.00;99.90;;;;;;4998430;28;19988;-88
2021/03/01 10:03:54;;;;;;;;;;;5.00;99.90;;;;;;4993655;28;19931;-88
2021/03/01 10:06:31;;;;;;;;;;;5.10;99.90;;;;;;4996946;28;19925;-88
2021/03/01 10:09:06;;;;;;;;;;;5.10;99.90;;;;;;4964614;28;20007;-88
2021/03/01 10:11:38;;;;;;;;;;;5.10;99.90;;;;;;4995971;28;20000;-90
2021/03/01 10:14:11;;;;;;;;;;;5.20;99.90;;;;;;4979001;28;19949;-89
2021/03/01 10:16:43;;;;;;;;;;;5.20;99.90;;;;;;4996345;28;19917;-89
2021/03/01 10:19:22;;;;;;;;;;;5.30;99.90;;;;;;4976344;28;20008;-88
2021/03/01 10:21:51;;;;;;;;;;;5.40;99.90;;;;;;4980444;28;19977;-88
2021/03/01 10:24:18;;;;;;;;;;;5.40;99.90;;;;;;4981244;28;19969;-87
2021/03/01 10:26:55;;;;;;;;;;;5.50;99.90;;;;;;4981768;28;19929;-91
2021/03/01 10:29:39;;;;;;;;;;;5.50;99.90;;;;;;4996943;28;19910;-90
2021/03/01 10:32:25;;;;;;;;;;;5.60;99.90;;;;;;5002932;28;19910;-91
2021/03/01 10:34:51;;;;;;;;;;;5.70;99.90;;;;;;5007795;28;19910;-91
2021/03/01 10:37:27;;;;;;;;;;;5.80;99.90;;;;;;4983096;28;19914;-90
2021/03/01 10:39:59;;;;;;;;;;;5.80;99.90;;;;;;4983137;28;19910;-92
2021/03/01 10:42:27;;;;;;;;;;;5.90;99.90;;;;;;4975520;28;20012;-91
2021/03/01 10:45:07;;;;;;;;;;;5.90;99.90;;;;;;4982183;28;19922;-92
2021/03/01 10:47:37;;;;;;;;;;;6.00;99.90;;;;;;4982009;28;19910;-92
2021/03/01 10:50:43;;;;;;;;;;;6.00;99.90;;;;;;4990745;28;19922;-91
2021/03/01 10:53:21;;;;;;;;;;;6.10;99.90;;;;;;4988602;28;19917;-90
2021/03/01 10:55:56;;;;;;;;;;;6.20;99.90;;;;;;4993753;28;19910;-90
2021/03/01 10:58:30;;;;;;;;;;;6.30;99.90;;;;;;4994124;28;19910;-92
2021/03/01 11:01:01;;;;;;;;;;;6.40;99.90;;;;;;4985623;28;19918;-90
2021/03/01 11:03:26;;;;;;;;;;;6.30;99.90;;;;;;4984684;28;19922;-90
2021/03/01 11:05:53;;;;;;;;;;;6.40;99.90;;;;;;4980706;28;19918;-91
2021/03/01 11:08:24;;;;;;;;;;;6.40;99.90;;;;;;4976231;28;19910;-89
2021/03/01 11:10:55;;;;;;;;;;;6.40;99.90;;;;;;4977283;28;20426;-89
2021/03/01 11:13:24;;;;;;;;;;;6.40;99.90;;;;;;4977085;28;20367;-91
2021/03/01 11:15:57;;;;;;;;;;;6.40;99.90;;;;;;4993656;28;19910;-90
2021/03/01 11:18:25;;;;;;;;;;;6.50;99.90;;;;;;4998985;28;19956;-89
2021/03/01 11:20:54;;;;;;;;;;;6.50;99.90;;;;;;4997790;28;20052;-90
2021/03/01 11:23:36;;;;;;;;;;;6.70;99.90;;;;;;5000098;28;19910;-89
2021/03/01 11:26:07;;;;;;;;;;;6.90;99.90;;;;;;4997578;28;20020;-91
2021/03/01 11:28:38;;;;;;;;;;;7.10;99.90;;;;;;4996536;28;19910;-90
2021/03/01 11:31:22;;;;;;;;;;;7.30;99.90;;;;;;4995097;28;19910;-91
2021/03/01 11:34:08;;;;;;;;;;;7.40;99.90;;;;;;4980790;28;19914;-90
2021/03/01 11:36:40;;;;;;;;;;;7.50;99.90;;;;;;4990105;28;19917;-89
2021/03/01 11:39:07;;;;;;;;;;;7.70;99.90;;;;;;4982072;28;19935;-90
2021/03/01 11:41:38;;;;;;;;;;;7.80;99.90;;;;;;4996361;28;20274;-90
2021/03/01 11:44:08;;;;;;;;;;;8.10;99.90;;;;;;4996412;28;19910;-90
2021/03/01 11:46:43;;;;;;;;;;;8.30;99.90;;;;;;4997327;28;19922;-88
2021/03/01 11:49:12;;;;;;;;;;;8.60;99.90;;;;;;4959570;28;19922;-91
2021/03/01 11:51:41;;;;;;;;;;;8.80;99.90;;;;;;4960557;29;19957;-91
2021/03/01 11:54:19;;;;;;;;;;;9.00;99.90;;;;;;4958062;29;20491;-91
2021/03/01 11:56:53;;;;;;;;;;;9.10;99.90;;;;;;4962300;28;20104;-91
2021/03/01 11:59:19;;;;;;;;;;;9.10;99.90;;;;;;4958165;29;19910;-92
2021/03/01 12:02:03;;;;;;;;;;;9.20;99.90;;;;;;4946261;29;20408;-91
2021/03/01 12:04:39;;;;;;;;;;;9.20;99.90;;;;;;4952244;28;19922;-91
2021/03/01 12:07:27;;;;;;;;;;;9.10;99.90;;;;;;4936511;29;19951;-90
2021/03/01 12:09:56;;;;;;;;;;;9.20;99.90;;;;;;4917954;29;20399;-90
2021/03/01 12:12:29;;;;;;;;;;;9.40;99.90;;;;;;4937169;29;19922;-90
2021/03/01 12:15:00;;;;;;;;;;;9.80;99.90;;;;;;4918346;29;19922;-91
2021/03/01 12:17:30;;;;;;;;;;;10.40;99.90;;;;;;4927502;29;19918;-91
2021/03/01 12:20:04;;;;;;;;;;;11.20;99.90;;;;;;4946993;28;19943;-92
2021/03/01 12:22:33;;;;;;;;;;;12.40;96.40;;;;;;4961227;28;19911;-92
2021/03/01 12:25:03;;;;;;;;;;;12.90;92.10;;;;;;5009673;28;20365;-91
2021/03/01 12:27:30;;;;;;;;;;;13.30;90.40;;;;;;4999184;28;20523;-91
2021/03/01 12:29:56;;;;;;;;;;;14.10;84.30;;;;;;4977821;28;20441;-91
2021/03/01 12:32:21;;;;;;;;;;;14.60;80.40;;;;;;4974425;28;19959;-91
2021/03/01 12:34:50;;;;;;;;;;;15.20;76.40;;;;;;4973941;28;19953;-91
2021/03/01 12:37:16;;;;;;;;;;;15.90;71.30;;;;;;4974336;28;20010;-92
2021/03/01 12:39:45;;;;;;;;;;;16.10;68.20;;;;;;4979172;28;19910;-92
2021/03/01 12:42:11;;;;;;;;;;;15.90;65.70;;;;;;4978443;28;19910;-91
2021/03/01 12:44:37;;;;;;;;;;;15.30;67.60;;;;;;4978211;28;20326;-92
2021/03/01 12:47:03;;;;;;;;;;;15.20;68.30;;;;;;4978653;28;20005;-91
2021/03/01 12:49:29;;;;;;;;;;;15.50;67.90;;;;;;4979543;28;19949;-91
2021/03/01 12:51:58;;;;;;;;;;;15.80;66.30;;;;;;4975142;28;19910;-94
2021/03/01 12:54:23;;;;;;;;;;;16.30;65.00;;;;;;4980021;28;19953;-90
2021/03/01 12:56:52;;;;;;;;;;;16.70;63.90;;;;;;4981795;28;19917;-89
2021/03/01 12:59:17;;;;;;;;;;;17.20;63.30;;;;;;4998056;28;19909;-92
2021/03/01 13:01:44;;;;;;;;;;;17.60;61.60;;;;;;4979428;28;19917;-93
2021/03/01 13:04:13;;;;;;;;;;;17.80;59.20;;;;;;4995746;28;19910;-92
2021/03/01 13:06:38;;;;;;;;;;;18.00;58.90;;;;;;4962622;28;19929;-93
2021/03/01 13:09:04;;;;;;;;;;;18.10;58.30;;;;;;4976255;28;19910;-93
2021/03/01 13:11:34;;;;;;;;;;;18.20;57.40;;;;;;4974892;28;19917;-91
2021/03/01 13:14:05;;;;;;;;;;;18.20;57.00;;;;;;4980415;28;20019;-92
2021/03/01 13:16:31;;;;;;;;;;;18.20;56.70;;;;;;4978918;28;19914;-91
2021/03/01 13:18:57;;;;;;;;;;;18.00;56.80;;;;;;4975628;28;19949;-92
2021/03/01 13:21:24;;;;;;;;;;;17.90;56.50;;;;;;4973957;28;19910;-92
2021/03/01 13:23:57;;;;;;;;;;;17.80;57.20;;;;;;4973649;28;19910;-93
2021/03/01 13:26:22;;;;;;;;;;;17.80;57.00;;;;;;4962494;28;20021;-92
2021/03/01 13:28:53;;;;;;;;;;;17.80;57.10;;;;;;4963218;28;19938;-92
2021/03/01 13:31:21;;;;;;;;;;;17.80;56.90;;;;;;4941581;29;20005;-92
2021/03/01 13:33:48;;;;;;;;;;;18.00;56.70;;;;;;4938418;29;19911;-92
2021/03/01 13:36:18;;;;;;;;;;;18.10;55.90;;;;;;4939834;29;19911;-91
2021/03/01 13:38:48;;;;;;;;;;;18.30;55.30;;;;;;4955065;28;19915;-92
2021/03/01 13:41:16;;;;;;;;;;;18.10;55.60;;;;;;4942919;29;19943;-91
2021/03/01 13:44:03;;;;;;;;;;;18.10;56.20;;;;;;4942857;29;19918;-91
2021/03/01 13:46:56;;;;;;;;;;;18.20;55.70;;;;;;4926490;29;19925;-93
2021/03/01 13:49:36;;;;;;;;;;;18.10;56.20;;;;;;4953589;28;19930;-91
2021/03/01 13:52:07;;;;;;;;;;;18.40;56.90;;;;;;4909940;29;19920;-92
2021/03/01 13:54:36;;;;;;;;;;;18.60;55.70;;;;;;4880015;29;19983;-90
2021/03/01 13:57:02;;;;;;;;;;;18.60;55.00;;;;;;4865364;29;19935;-92
2021/03/01 13:59:28;;;;;;;;;;;18.60;54.90;;;;;;4867407;29;19916;-91
2021/03/01 14:02:05;;;;;;;;;;;18.60;54.30;;;;;;4927191;29;19935;-92
2021/03/01 14:04:30;;;;;;;;;;;18.60;55.40;;;;;;4898788;29;19935;-91
2021/03/01 14:06:57;;;;;;;;;;;18.60;54.40;;;;;;4866394;29;20356;-92
2021/03/01 14:09:27;;;;;;;;;;;18.60;54.70;;;;;;4862566;29;19912;-91
2021/03/01 14:11:56;;;;;;;;;;;18.70;54.60;;;;;;4886664;29;19915;-91
2021/03/01 14:14:21;;;;;;;;;;;18.70;55.30;;;;;;4865880;29;19935;-92
2021/03/01 14:16:49;;;;;;;;;;;18.70;55.10;;;;;;4866047;29;19956;-91
2021/03/01 14:19:18;;;;;;;;;;;18.60;54.30;;;;;;4863712;29;19938;-90
2021/03/01 14:21:44;;;;;;;;;;;18.40;55.30;;;;;;4862636;29;19913;-90
2021/03/01 14:24:10;;;;;;;;;;;18.30;55.00;;;;;;4881733;29;19927;-92
2021/03/01 14:26:42;;;;;;;;;;;18.40;56.00;;;;;;4880841;29;19919;-90
2021/03/01 14:29:25;;;;;;;;;;;18.40;55.40;;;;;;4907335;29;19919;-91
2021/03/01 14:32:00;;;;;;;;;;;18.20;55.40;;;;;;4914191;29;19963;-91
2021/03/01 14:34:26;;;;;;;;;;;18.10;55.80;;;;;;4913530;29;20341;-93
2021/03/01 14:36:52;;;;;;;;;;;18.10;55.80;;;;;;4912232;29;19959;-92
2021/03/01 14:39:20;;;;;;;;;;;18.10;55.60;;;;;;4917147;29;19923;-92
2021/03/01 14:41:53;;;;;;;;;;;18.00;55.60;;;;;;4907095;29;19915;-94
2021/03/01 14:44:22;;;;;;;;;;;17.80;55.80;;;;;;4944847;29;19915;-92
2021/03/01 14:46:54;;;;;;;;;;;17.60;56.00;;;;;;4925085;29;19918;-92
2021/03/01 14:49:25;;;;;;;;;;;17.40;56.40;;;;;;4950275;28;19922;-91
2021/03/01 14:52:00;;;;;;;;;;;17.40;57.00;;;;;;4947005;29;19910;-91
2021/03/01 14:54:29;;;;;;;;;;;17.30;57.10;;;;;;4943657;29;19914;-93
2021/03/01 14:56:59;;;;;;;;;;;17.20;57.20;;;;;;4942585;29;19918;-90
2021/03/01 14:59:29;;;;;;;;;;;17.00;57.60;;;;;;4939787;28;19910;-91
2021/03/01 15:02:10;;;;;;;;;;;17.00;57.90;;;;;;4940859;29;20039;-92